createdAt,value
2018-12-13T00:00:35.189Z,11.97
2018-12-13T00:01:40.537Z,15.80
2018-12-13T00:02:45.427Z,14.85
2018-12-13T00:03:50.103Z,12.37
2018-12-13T00:04:55.338Z,16.45
2018-12-13T00:06:00.048Z,14.18
2018-12-13T00:07:04.817Z,15.50
2018-12-13T00:08:10.260Z,13.13
2018-12-13T00:09:14.902Z,15.80
2018-12-13T00:10:20.169Z,18.12
2018-12-13T00:11:24.792Z,16.48
2018-12-13T00:12:29.461Z,16.45
2018-12-13T00:13:34.347Z,18.42
2018-12-13T00:14:42.044Z,18.82
2018-12-13T00:15:49.566Z,14.70
2018-12-13T00:16:55.370Z,17.45
2018-12-13T00:18:02.583Z,13.22
2018-12-13T00:19:09.843Z,20.25
2018-12-13T00:20:16.294Z,19.23
2018-12-13T00:21:22.808Z,15.20
2018-12-13T00:22:33.153Z,16.67
2018-12-13T00:23:39.042Z,16.67
2018-12-13T00:24:45.501Z,17.15
2018-12-13T00:25:51.101Z,13.88
2018-12-13T00:26:57.658Z,16.97
2018-12-13T00:28:05.233Z,47.62
2018-12-13T00:29:12.138Z,15.78
2018-12-13T00:30:17.837Z,16.55
2018-12-13T00:31:30.885Z,17.85
2018-12-13T00:32:40.572Z,13.98
2018-12-13T00:33:48.016Z,20.43
2018-12-13T00:34:55.642Z,14.15
2018-12-13T00:36:04.232Z,14.95
2018-12-13T00:37:11.425Z,11.93
2018-12-13T00:38:17.775Z,16.15
2018-12-13T00:39:23.253Z,14.90
2018-12-13T00:40:29.250Z,11.55
2018-12-13T00:41:34.680Z,14.07
2018-12-13T00:42:40.080Z,12.10
2018-12-13T00:43:45.579Z,12.25
2018-12-13T00:44:50.752Z,9.38
2018-12-13T00:45:56.335Z,10.80
2018-12-13T00:47:01.440Z,11.15
2018-12-13T00:48:06.301Z,11.88
2018-12-13T00:49:11.477Z,11.90
2018-12-13T00:50:16.676Z,12.45
2018-12-13T00:51:21.499Z,10.78
2018-12-13T00:52:26.357Z,10.25
2018-12-13T00:53:31.082Z,10.78
2018-12-13T00:54:35.912Z,12.35
2018-12-13T00:55:40.637Z,11.80
2018-12-13T00:56:46.815Z,12.07
2018-12-13T00:57:51.591Z,11.60
2018-12-13T00:58:57.565Z,13.95
2018-12-13T01:00:02.469Z,10.72
2018-12-13T01:01:08.032Z,11.05
2018-12-13T01:02:13.222Z,12.82
2018-12-13T01:03:18.366Z,12.35
2018-12-13T01:04:23.146Z,16.87
2018-12-13T01:05:30.667Z,10.72
2018-12-13T01:06:36.808Z,11.93
2018-12-13T01:07:42.032Z,14.70
2018-12-13T01:08:48.026Z,15.65
2018-12-13T01:09:54.100Z,10.48
2018-12-13T01:11:00.440Z,14.40
2018-12-13T01:12:05.685Z,14.63
2018-12-13T01:13:12.329Z,11.43
2018-12-13T01:14:23.260Z,11.73
2018-12-13T01:15:33.156Z,15.18
2018-12-13T01:16:42.827Z,13.93
2018-12-13T01:17:51.296Z,10.80
2018-12-13T01:18:58.474Z,13.62
2018-12-13T01:20:05.542Z,10.35
2018-12-13T01:21:10.214Z,13.40
2018-12-13T01:22:15.033Z,9.75
2018-12-13T01:23:20.222Z,12.78
2018-12-13T01:24:25.014Z,12.03
2018-12-13T01:25:32.511Z,10.18
2018-12-13T01:26:37.734Z,10.72
2018-12-13T01:27:42.796Z,11.25
2018-12-13T01:28:48.543Z,10.88
2018-12-13T01:29:54.115Z,15.78
2018-12-13T01:31:00.460Z,10.28
2018-12-13T01:33:08.907Z,9.90
2018-12-13T01:34:15.061Z,12.60
2018-12-13T01:35:21.042Z,9.75
2018-12-13T01:36:26.647Z,10.53
2018-12-13T01:37:31.517Z,12.23
2018-12-13T01:38:36.480Z,12.43
2018-12-13T01:39:42.509Z,11.57
2018-12-13T01:40:48.621Z,10.13
2018-12-13T01:41:55.068Z,10.32
2018-12-13T01:43:06.823Z,11.38
2018-12-13T01:44:13.046Z,9.75
2018-12-13T01:45:20.890Z,11.60
2018-12-13T01:46:27.082Z,11.95
2018-12-13T01:47:32.583Z,15.95
2018-12-13T01:48:37.428Z,11.55
2018-12-13T01:49:42.635Z,11.10
2018-12-13T01:50:47.445Z,10.30
2018-12-13T01:51:53.087Z,13.18
2018-12-13T01:52:58.951Z,10.28
2018-12-13T01:55:27.526Z,10.40
2018-12-13T01:56:32.953Z,12.13
2018-12-13T01:57:37.940Z,9.65
2018-12-13T01:58:59.594Z,11.48
2018-12-13T02:00:04.781Z,14.18
2018-12-13T02:01:10.871Z,10.68
2018-12-13T02:02:16.376Z,12.37
2018-12-13T02:03:21.437Z,10.90
2018-12-13T02:04:27.326Z,13.40
2018-12-13T02:05:32.475Z,11.28
2018-12-13T02:06:38.058Z,16.48
2018-12-13T02:07:43.664Z,13.55
2018-12-13T02:08:48.643Z,12.58
2018-12-13T02:09:55.864Z,12.95
2018-12-13T02:11:02.464Z,12.98
2018-12-13T02:12:08.231Z,11.38
2018-12-13T02:13:14.039Z,13.00
2018-12-13T02:14:20.291Z,11.93
2018-12-13T02:15:28.040Z,10.18
2018-12-13T02:16:35.511Z,13.50
2018-12-13T02:17:42.822Z,10.90
2018-12-13T02:18:48.137Z,11.33
2018-12-13T02:19:56.495Z,12.13
2018-12-13T02:21:02.479Z,9.70
2018-12-13T02:22:09.781Z,13.40
2018-12-13T02:23:15.303Z,11.85
2018-12-13T02:24:22.218Z,11.57
2018-12-13T02:26:39.594Z,10.63
2018-12-13T02:27:46.229Z,11.20
2018-12-13T02:28:57.185Z,13.20
2018-12-13T02:30:05.631Z,14.83
2018-12-13T02:31:13.489Z,12.65
2018-12-13T02:32:21.147Z,14.45
2018-12-13T02:33:28.459Z,14.23
2018-12-13T02:34:34.694Z,12.90
2018-12-13T02:35:41.280Z,11.70
2018-12-13T02:36:47.579Z,11.55
2018-12-13T02:37:52.942Z,13.22
2018-12-13T02:38:59.308Z,12.23
2018-12-13T02:40:06.302Z,12.63
2018-12-13T02:41:14.102Z,12.10
2018-12-13T02:42:20.676Z,12.85
2018-12-13T02:43:27.738Z,12.60
2018-12-13T02:44:33.928Z,11.75
2018-12-13T02:45:41.808Z,13.60
2018-12-13T02:46:48.525Z,12.50
2018-12-13T02:47:56.752Z,13.48
2018-12-13T02:49:11.987Z,13.70
2018-12-13T02:50:20.168Z,16.62
2018-12-13T02:51:26.327Z,13.18
2018-12-13T02:52:31.395Z,11.60
2018-12-13T02:53:44.896Z,12.20
2018-12-13T02:54:51.477Z,13.55
2018-12-13T02:55:58.773Z,15.25
2018-12-13T02:57:04.769Z,12.05
2018-12-13T02:58:09.871Z,13.35
2018-12-13T02:59:16.940Z,12.00
2018-12-13T03:00:21.802Z,14.98
2018-12-13T03:01:26.907Z,14.83
2018-12-13T03:02:32.252Z,14.50
2018-12-13T03:03:37.905Z,13.88
2018-12-13T03:04:42.720Z,11.70
2018-12-13T03:05:47.902Z,12.18
2018-12-13T03:06:53.277Z,11.95
2018-12-13T03:07:58.706Z,14.28
2018-12-13T03:09:08.643Z,12.98
2018-12-13T03:10:16.714Z,12.35
2018-12-13T03:11:22.983Z,14.98
2018-12-13T03:12:30.415Z,12.13
2018-12-13T03:13:40.535Z,11.50
2018-12-13T03:14:49.353Z,12.40
2018-12-13T03:15:56.845Z,12.50
2018-12-13T03:17:05.121Z,11.68
2018-12-13T03:18:11.069Z,14.75
2018-12-13T03:19:21.726Z,15.05
2018-12-13T03:20:27.853Z,12.70
2018-12-13T03:21:33.454Z,12.10
2018-12-13T03:22:38.449Z,11.88
2018-12-13T03:23:43.878Z,14.83
2018-12-13T03:24:49.126Z,13.22
2018-12-13T03:25:54.393Z,17.27
2018-12-13T03:27:00.251Z,12.23
2018-12-13T03:28:10.646Z,14.20
2018-12-13T03:29:16.339Z,13.18
2018-12-13T03:30:21.329Z,18.23
2018-12-13T03:31:27.615Z,15.40
2018-12-13T03:32:32.954Z,20.08
2018-12-13T03:33:38.105Z,11.93
2018-12-13T03:34:43.625Z,10.68
2018-12-13T03:35:50.208Z,12.65
2018-12-13T03:36:57.396Z,13.13
2018-12-13T03:38:04.362Z,15.18
2018-12-13T03:39:11.305Z,10.50
2018-12-13T03:40:21.554Z,10.88
2018-12-13T03:41:30.251Z,13.00
2018-12-13T03:42:36.885Z,13.22
2018-12-13T03:43:42.710Z,10.00
2018-12-13T03:45:00.490Z,10.50
2018-12-13T03:46:15.517Z,11.83
2018-12-13T03:47:23.695Z,12.82
2018-12-13T03:48:28.453Z,13.20
2018-12-13T03:49:34.150Z,12.68
2018-12-13T03:50:39.948Z,14.38
2018-12-13T03:51:45.150Z,10.25
2018-12-13T03:52:53.837Z,14.23
2018-12-13T03:53:59.134Z,11.63
2018-12-13T03:55:06.852Z,10.32
2018-12-13T03:56:11.836Z,14.15
2018-12-13T03:57:16.958Z,12.60
2018-12-13T03:58:22.303Z,10.78
2018-12-13T03:59:27.343Z,16.27
2018-12-13T04:00:32.141Z,12.25
2018-12-13T04:01:37.315Z,14.73
2018-12-13T04:02:43.233Z,15.50
2018-12-13T04:03:48.170Z,18.57
2018-12-13T04:04:53.275Z,17.65
2018-12-13T04:05:58.583Z,20.57
2018-12-13T04:07:05.338Z,23.10
2018-12-13T04:08:10.471Z,20.90
2018-12-13T04:09:15.351Z,19.20
2018-12-13T04:10:21.476Z,20.37
2018-12-13T04:11:26.713Z,27.35
2018-12-13T04:12:35.409Z,30.52
2018-12-13T04:13:41.047Z,28.25
2018-12-13T04:14:46.560Z,27.77
2018-12-13T04:15:52.839Z,29.80
2018-12-13T04:16:58.111Z,24.85
2018-12-13T04:18:02.997Z,22.22
2018-12-13T04:19:10.505Z,19.00
2018-12-13T04:20:15.707Z,21.42
2018-12-13T04:21:20.797Z,21.57
2018-12-13T04:22:26.032Z,20.92
2018-12-13T04:23:31.072Z,17.27
2018-12-13T04:24:37.367Z,15.65
2018-12-13T04:25:42.439Z,17.32
2018-12-13T04:26:47.442Z,17.10
2018-12-13T04:27:52.422Z,27.95
2018-12-13T04:28:57.209Z,14.83
2018-12-13T04:30:02.359Z,14.33
2018-12-13T04:31:07.175Z,13.38
2018-12-13T04:32:11.869Z,14.50
2018-12-13T04:33:16.598Z,13.85
2018-12-13T04:34:22.424Z,18.60
2018-12-13T04:35:27.230Z,13.58
2018-12-13T04:36:33.326Z,13.58
2018-12-13T04:37:41.609Z,12.43
2018-12-13T04:38:47.584Z,10.23
2018-12-13T04:39:53.780Z,12.18
2018-12-13T04:41:37.708Z,9.58
2018-12-13T04:42:42.746Z,11.28
2018-12-13T04:43:48.780Z,12.98
2018-12-13T04:44:54.333Z,10.70
2018-12-13T04:45:59.612Z,10.80
2018-12-13T04:47:06.048Z,10.68
2018-12-13T04:48:11.963Z,10.50
2018-12-13T04:49:17.174Z,12.37
2018-12-13T04:50:23.301Z,11.30
2018-12-13T04:51:29.458Z,9.40
2018-12-13T04:52:35.402Z,10.58
2018-12-13T04:53:41.564Z,8.70
2018-12-13T04:54:47.017Z,12.07
2018-12-13T04:55:52.640Z,9.68
2018-12-13T04:56:58.212Z,11.10
2018-12-13T04:58:03.949Z,12.75
2018-12-13T04:59:09.801Z,9.45
2018-12-13T05:00:17.223Z,8.43
2018-12-13T05:01:24.668Z,7.65
2018-12-13T05:02:31.385Z,10.08
2018-12-13T05:03:36.633Z,8.48
2018-12-13T05:04:42.178Z,8.10
2018-12-13T05:05:49.150Z,8.88
2018-12-13T05:06:55.330Z,10.32
2018-12-13T05:08:01.362Z,9.30
2018-12-13T05:09:11.120Z,9.05
2018-12-13T05:11:21.927Z,10.13
2018-12-13T05:12:27.651Z,8.83
2018-12-13T05:13:34.983Z,10.88
2018-12-13T05:14:43.893Z,7.47
2018-12-13T05:15:50.994Z,10.15
2018-12-13T05:16:58.312Z,8.65
2018-12-13T05:18:04.043Z,11.03
2018-12-13T05:19:09.786Z,8.55
2018-12-13T05:20:16.034Z,8.23
2018-12-13T05:21:22.263Z,8.08
2018-12-13T05:22:28.449Z,9.08
2018-12-13T05:23:34.460Z,8.03
2018-12-13T05:24:40.780Z,9.08
2018-12-13T05:25:46.397Z,11.08
2018-12-13T05:26:52.463Z,10.18
2018-12-13T05:27:58.881Z,9.30
2018-12-13T05:29:05.452Z,12.95
2018-12-13T05:30:11.418Z,11.28
2018-12-13T05:31:17.646Z,8.75
2018-12-13T05:32:24.658Z,9.43
2018-12-13T05:33:32.007Z,10.10
2018-12-13T05:34:38.326Z,7.90
2018-12-13T05:35:46.792Z,9.68
2018-12-13T05:36:54.081Z,9.40
2018-12-13T05:38:00.804Z,10.72
2018-12-13T05:39:08.290Z,9.05
2018-12-13T05:40:17.052Z,9.25
2018-12-13T05:41:25.166Z,11.40
2018-12-13T05:42:32.208Z,10.68
2018-12-13T05:43:36.981Z,10.82
2018-12-13T05:44:44.984Z,11.28
2018-12-13T05:45:49.666Z,9.40
2018-12-13T05:46:55.643Z,9.43
2018-12-13T05:48:01.859Z,8.53
2018-12-13T05:49:07.215Z,9.65
2018-12-13T05:50:12.890Z,9.70
2018-12-13T05:51:19.292Z,9.78
2018-12-13T05:52:24.909Z,8.15
2018-12-13T05:53:32.345Z,10.28
2018-12-13T05:54:38.213Z,8.75
2018-12-13T05:55:44.094Z,9.80
2018-12-13T05:56:51.927Z,9.63
2018-12-13T05:57:59.610Z,9.38
2018-12-13T05:59:06.378Z,9.83
2018-12-13T06:00:12.769Z,10.03
2018-12-13T06:01:18.499Z,9.58
2018-12-13T06:02:25.189Z,9.78
2018-12-13T06:03:31.505Z,9.15
2018-12-13T06:04:37.973Z,9.50
2018-12-13T06:05:44.257Z,9.88
2018-12-13T06:06:51.288Z,10.40
2018-12-13T06:07:57.787Z,10.93
2018-12-13T06:09:08.540Z,7.40
2018-12-13T06:10:14.634Z,11.73
2018-12-13T06:11:20.633Z,10.58
2018-12-13T06:12:27.224Z,9.23
2018-12-13T06:13:32.208Z,7.12
2018-12-13T06:14:37.819Z,7.70
2018-12-13T06:15:43.081Z,9.35
2018-12-13T06:16:52.765Z,9.95
2018-12-13T06:17:57.898Z,9.15
2018-12-13T06:19:05.186Z,8.03
2018-12-13T06:20:11.734Z,8.20
2018-12-13T06:21:18.582Z,9.73
2018-12-13T06:22:23.972Z,8.78
2018-12-13T06:23:29.651Z,10.43
2018-12-13T06:24:34.865Z,11.48
2018-12-13T06:25:40.378Z,9.23
2018-12-13T06:33:04.060Z,10.93
2018-12-13T06:34:10.716Z,11.08
2018-12-13T06:35:19.234Z,8.65
2018-12-13T06:36:24.860Z,9.43
2018-12-13T06:37:43.013Z,8.13
2018-12-13T06:39:07.553Z,8.13
2018-12-13T06:40:15.670Z,9.48
2018-12-13T06:41:23.412Z,9.40
2018-12-13T06:42:33.956Z,14.35
2018-12-13T06:44:13.985Z,7.45
2018-12-13T06:45:53.792Z,7.53
2018-12-13T06:47:03.459Z,11.70
2018-12-13T06:48:16.035Z,8.95
2018-12-13T06:49:34.827Z,12.68
2018-12-13T06:50:48.957Z,9.80
2018-12-13T06:51:58.799Z,12.13
2018-12-13T06:53:11.893Z,12.30
2018-12-13T06:54:21.989Z,10.68
2018-12-13T06:55:29.716Z,11.33
2018-12-13T06:56:43.709Z,11.48
2018-12-13T06:57:50.698Z,10.60
2018-12-13T06:59:00.851Z,10.40
2018-12-13T07:00:13.648Z,11.48
2018-12-13T07:01:22.393Z,13.25
2018-12-13T07:02:38.759Z,11.68
2018-12-13T07:03:49.879Z,10.88
2018-12-13T07:04:55.178Z,11.30
2018-12-13T07:06:00.440Z,11.85
2018-12-13T07:07:05.301Z,10.15
2018-12-13T07:08:18.011Z,13.80
2018-12-13T07:09:24.938Z,10.65
2018-12-13T07:10:37.377Z,11.40
2018-12-13T07:11:46.183Z,12.00
2018-12-13T07:12:54.240Z,17.42
2018-12-13T07:14:06.783Z,13.48
2018-12-13T07:15:17.902Z,12.45
2018-12-13T07:16:27.422Z,13.70
2018-12-13T07:17:35.944Z,13.68
2018-12-13T07:18:45.152Z,15.35
2018-12-13T07:19:52.679Z,19.32
2018-12-13T07:20:59.850Z,11.83
2018-12-13T07:22:06.564Z,22.80
2018-12-13T07:23:13.804Z,17.98
2018-12-13T07:24:20.631Z,18.20
2018-12-13T07:25:26.883Z,18.48
2018-12-13T07:26:35.369Z,16.50
2018-12-13T07:27:40.657Z,27.58
2018-12-13T07:28:47.015Z,19.50
2018-12-13T07:29:57.125Z,19.25
2018-12-13T07:31:04.401Z,16.48
2018-12-13T07:32:09.581Z,21.37
2018-12-13T07:33:16.692Z,23.02
2018-12-13T07:34:25.052Z,24.27
2018-12-13T07:35:32.288Z,22.58
2018-12-13T07:36:38.306Z,20.15
2018-12-13T07:37:45.950Z,18.00
2018-12-13T07:38:53.316Z,21.07
2018-12-13T07:39:59.080Z,22.52
2018-12-13T07:41:03.984Z,19.12
2018-12-13T07:42:09.154Z,19.60
2018-12-13T07:43:17.505Z,18.15
2018-12-13T07:44:22.270Z,17.15
2018-12-13T07:45:28.134Z,21.42
2018-12-13T07:46:33.180Z,16.60
2018-12-13T07:47:42.438Z,26.73
2018-12-13T07:48:47.458Z,14.30
2018-12-13T07:49:54.422Z,11.85
2018-12-13T07:51:00.031Z,25.82
2018-12-13T07:52:15.767Z,25.52
2018-12-13T07:53:25.865Z,29.48
2018-12-13T07:54:35.448Z,29.65
2018-12-13T07:55:55.316Z,19.67
2018-12-13T07:57:04.056Z,18.40
2018-12-13T07:58:12.974Z,16.25
2018-12-13T07:59:18.234Z,12.58
2018-12-13T08:00:24.438Z,16.20
2018-12-13T08:01:29.258Z,18.85
2018-12-13T08:02:34.706Z,13.25
2018-12-13T08:03:41.079Z,11.97
2018-12-13T08:04:45.897Z,13.38
2018-12-13T08:07:11.521Z,16.30
2018-12-13T08:08:20.764Z,13.45
2018-12-13T08:09:41.884Z,11.50
2018-12-13T08:10:51.152Z,14.70
2018-12-13T08:11:56.565Z,13.43
2018-12-13T08:13:07.935Z,12.73
2018-12-13T08:14:15.790Z,11.15
2018-12-13T08:15:20.522Z,13.70
2018-12-13T08:16:25.857Z,15.03
2018-12-13T08:17:31.466Z,21.42
2018-12-13T08:18:36.354Z,19.17
2018-12-13T08:19:41.317Z,15.72
2018-12-13T08:20:46.160Z,10.55
2018-12-13T08:21:51.933Z,13.80
2018-12-13T08:22:58.113Z,9.00
2018-12-13T08:24:03.671Z,13.95
2018-12-13T08:25:09.081Z,17.50
2018-12-13T08:26:14.099Z,13.45
2018-12-13T08:27:19.251Z,14.28
2018-12-13T08:28:24.953Z,20.00
2018-12-13T08:29:29.797Z,12.95
2018-12-13T08:30:35.379Z,14.83
2018-12-13T08:31:41.735Z,28.00
2018-12-13T08:32:46.833Z,10.70
2018-12-13T08:33:51.681Z,13.35
2018-12-13T08:34:56.475Z,16.67
2018-12-13T08:36:01.379Z,15.08
2018-12-13T08:37:06.755Z,15.28
2018-12-13T08:38:11.730Z,11.85
2018-12-13T08:39:17.489Z,16.00
2018-12-13T08:40:22.396Z,14.55
2018-12-13T08:41:27.217Z,15.80
2018-12-13T08:42:32.440Z,10.10
2018-12-13T08:43:38.099Z,17.17
2018-12-13T08:44:44.171Z,12.80
2018-12-13T08:45:49.125Z,13.50
2018-12-13T08:46:54.773Z,13.13
2018-12-13T08:47:59.540Z,14.23
2018-12-13T08:49:05.336Z,15.00
2018-12-13T08:50:11.474Z,13.40
2018-12-13T08:51:17.654Z,13.48
2018-12-13T08:52:22.651Z,13.13
2018-12-13T08:53:28.762Z,10.58
2018-12-13T08:54:34.514Z,22.75
2018-12-13T08:55:42.668Z,12.50
2018-12-13T08:56:47.608Z,13.48
2018-12-13T08:57:52.488Z,11.93
2018-12-13T08:58:57.317Z,14.75
2018-12-13T09:00:02.009Z,11.95
2018-12-13T09:01:11.367Z,14.07
2018-12-13T09:02:22.358Z,16.17
2018-12-13T09:03:27.311Z,14.98
2018-12-13T09:04:32.111Z,14.13
2018-12-13T09:05:36.882Z,11.93
2018-12-13T09:06:44.221Z,16.77
2018-12-13T09:07:50.291Z,14.70
2018-12-13T09:08:55.036Z,15.53
2018-12-13T09:10:00.637Z,16.60
2018-12-13T09:11:06.460Z,15.88
2018-12-13T09:12:11.373Z,13.48
2018-12-13T09:13:16.525Z,17.17
2018-12-13T09:14:22.988Z,15.88
2018-12-13T09:15:29.266Z,16.25
2018-12-13T09:16:34.362Z,17.37
2018-12-13T09:17:39.982Z,12.82
2018-12-13T09:18:45.585Z,13.48
2018-12-13T09:19:51.389Z,11.70
2018-12-13T09:20:56.311Z,13.75
2018-12-13T09:22:02.509Z,11.90
2018-12-13T09:23:07.451Z,12.45
2018-12-13T09:24:12.634Z,10.70
2018-12-13T09:25:19.594Z,15.40
2018-12-13T09:26:24.571Z,12.10
2018-12-13T09:27:30.419Z,12.80
2018-12-13T09:28:36.444Z,12.60
2018-12-13T09:29:41.686Z,12.30
2018-12-13T09:30:49.642Z,18.98
2018-12-13T09:31:54.753Z,12.75
2018-12-13T09:33:08.015Z,12.75
2018-12-13T09:34:13.571Z,13.30
2018-12-13T09:35:20.854Z,12.00
2018-12-13T09:36:27.582Z,12.65
2018-12-13T09:37:33.965Z,12.63
2018-12-13T09:38:43.501Z,15.23
2018-12-13T09:39:54.064Z,12.43
2018-12-13T09:40:59.217Z,16.95
2018-12-13T09:42:04.851Z,13.28
2018-12-13T09:43:09.655Z,12.60
2018-12-13T09:44:19.895Z,12.15
2018-12-13T09:45:24.658Z,12.85
2018-12-13T09:46:30.856Z,18.52
2018-12-13T09:47:35.910Z,12.95
2018-12-13T09:48:41.142Z,13.05
2018-12-13T09:49:47.284Z,12.13
2018-12-13T09:50:55.254Z,12.43
2018-12-13T09:52:01.145Z,15.93
2018-12-13T09:53:06.081Z,11.55
2018-12-13T09:54:10.963Z,14.78
2018-12-13T09:55:16.463Z,12.15
2018-12-13T09:56:21.283Z,11.00
2018-12-13T09:57:28.368Z,11.18
2018-12-13T09:58:34.584Z,10.55
2018-12-13T09:59:39.646Z,11.93
2018-12-13T10:00:44.706Z,14.03
2018-12-13T10:01:50.481Z,11.50
2018-12-13T10:02:57.109Z,13.65
2018-12-13T10:04:02.142Z,11.43
2018-12-13T10:05:07.025Z,12.45
2018-12-13T10:06:11.925Z,13.93
2018-12-13T10:07:18.051Z,13.70
2018-12-13T10:08:23.732Z,12.47
2018-12-13T10:09:29.466Z,12.73
2018-12-13T10:10:34.296Z,13.60
2018-12-13T10:11:39.913Z,11.45
2018-12-13T10:12:44.768Z,11.90
2018-12-13T10:13:49.702Z,11.70
2018-12-13T10:14:55.550Z,13.38
2018-12-13T10:16:02.101Z,13.40
2018-12-13T10:17:06.927Z,9.28
2018-12-13T10:18:13.051Z,13.75
2018-12-13T10:19:18.972Z,15.32
2018-12-13T10:20:23.770Z,12.28
2018-12-13T10:21:30.726Z,13.80
2018-12-13T10:22:35.589Z,11.40
2018-12-13T10:23:41.663Z,10.95
2018-12-13T10:24:46.498Z,13.43
2018-12-13T10:25:51.401Z,13.08
2018-12-13T10:26:57.292Z,14.10
2018-12-13T10:28:02.109Z,10.70
2018-12-13T10:29:06.989Z,11.88
2018-12-13T10:30:11.859Z,13.03
2018-12-13T10:31:16.782Z,12.23
2018-12-13T10:32:22.556Z,13.58
2018-12-13T10:33:27.387Z,11.20
2018-12-13T10:34:33.178Z,13.10
2018-12-13T10:35:38.058Z,11.40
2018-12-13T10:36:43.370Z,10.95
2018-12-13T10:37:48.558Z,15.30
2018-12-13T10:38:54.239Z,13.53
2018-12-13T10:39:59.036Z,18.70
2018-12-13T10:41:03.898Z,11.25
2018-12-13T10:42:12.802Z,11.55
2018-12-13T10:43:23.518Z,12.20
2018-12-13T10:44:37.798Z,13.43
2018-12-13T10:45:44.898Z,14.30
2018-12-13T10:46:49.737Z,11.80
2018-12-13T10:47:55.593Z,14.47
2018-12-13T10:49:01.140Z,12.47
2018-12-13T10:50:07.987Z,12.47
2018-12-13T10:51:12.782Z,11.80
2018-12-13T10:52:17.573Z,11.48
2018-12-13T10:53:22.380Z,13.53
2018-12-13T10:54:27.396Z,17.98
2018-12-13T10:55:32.201Z,12.30
2018-12-13T10:56:38.233Z,12.03
2018-12-13T10:57:43.800Z,10.23
2018-12-13T10:58:49.432Z,15.85
2018-12-13T10:59:54.632Z,14.98
2018-12-13T11:01:04.446Z,16.57
2018-12-13T11:02:14.297Z,12.43
2018-12-13T11:03:32.781Z,9.95
2018-12-13T11:04:37.620Z,12.70
2018-12-13T11:05:43.252Z,14.23
2018-12-13T11:06:48.872Z,14.45
2018-12-13T11:07:55.446Z,14.47
2018-12-13T11:09:00.479Z,15.08
2018-12-13T11:10:08.195Z,17.70
2018-12-13T11:11:13.335Z,16.35
2018-12-13T11:12:18.866Z,15.80
2018-12-13T11:13:23.851Z,14.07
2018-12-13T11:14:45.978Z,10.82
2018-12-13T11:15:51.379Z,15.78
2018-12-13T11:16:58.324Z,13.13
2018-12-13T11:18:03.586Z,13.65
2018-12-13T11:19:12.398Z,14.38
2018-12-13T11:20:18.461Z,13.38
2018-12-13T11:21:23.218Z,12.37
2018-12-13T11:22:29.213Z,12.98
2018-12-13T11:23:34.778Z,17.00
2018-12-13T11:24:41.388Z,15.48
2018-12-13T11:25:48.497Z,13.60
2018-12-13T11:26:58.508Z,12.10
2018-12-13T11:28:15.515Z,13.93
2018-12-13T11:29:34.787Z,12.07
2018-12-13T11:30:40.570Z,13.68
2018-12-13T11:31:46.262Z,13.38
2018-12-13T11:32:51.438Z,10.70
2018-12-13T11:33:58.446Z,18.05
2018-12-13T11:35:03.384Z,16.50
2018-12-13T11:36:11.455Z,14.80
2018-12-13T11:37:18.149Z,25.45
2018-12-13T11:38:22.961Z,15.78
2018-12-13T11:39:28.119Z,14.25
2018-12-13T11:40:34.901Z,11.97
2018-12-13T11:41:41.828Z,13.80
2018-12-13T11:42:48.700Z,13.48
2018-12-13T11:43:53.905Z,15.05
2018-12-13T11:45:01.194Z,9.80
2018-12-13T11:46:06.481Z,12.88
2018-12-13T11:47:12.369Z,15.80
2018-12-13T11:48:18.118Z,12.37
2018-12-13T11:49:24.854Z,12.45
2018-12-13T11:50:31.473Z,11.55
2018-12-13T11:51:36.530Z,11.97
2018-12-13T11:52:41.311Z,11.65
2018-12-13T11:53:47.627Z,11.78
2018-12-13T11:54:53.713Z,11.22
2018-12-13T11:55:58.632Z,13.75
2018-12-13T11:57:04.092Z,13.32
2018-12-13T11:58:10.374Z,11.22
2018-12-13T11:59:16.079Z,20.62
2018-12-13T12:00:29.092Z,12.75
2018-12-13T12:01:36.171Z,29.82
2018-12-13T12:02:41.949Z,64.20
2018-12-13T12:03:46.784Z,92.60
2018-12-13T12:04:52.055Z,228.67
2018-12-13T12:05:57.774Z,97.27
2018-12-13T12:07:07.273Z,77.17
2018-12-13T12:08:12.450Z,50.12
2018-12-13T12:09:17.622Z,66.57
2018-12-13T12:10:23.441Z,44.98
2018-12-13T12:11:29.458Z,40.10
2018-12-13T12:12:49.351Z,26.50
2018-12-13T12:13:54.839Z,22.67
2018-12-13T12:14:59.603Z,18.80
2018-12-13T12:16:04.770Z,19.32
2018-12-13T12:17:10.671Z,14.60
2018-12-13T12:18:15.908Z,17.52
2018-12-13T12:19:20.905Z,19.15
2018-12-13T12:20:25.689Z,15.60
2018-12-13T12:21:34.975Z,14.85
2018-12-13T12:22:39.737Z,51.00
2018-12-13T12:23:45.897Z,18.70
2018-12-13T12:24:51.378Z,13.43
2018-12-13T12:25:57.424Z,13.85
2018-12-13T12:27:03.284Z,13.25
2018-12-13T12:28:09.124Z,13.68
2018-12-13T12:29:16.490Z,15.35
2018-12-13T12:30:33.271Z,17.15
2018-12-13T12:31:39.241Z,12.88
2018-12-13T12:32:44.199Z,16.93
2018-12-13T12:33:49.949Z,17.70
2018-12-13T12:34:55.497Z,16.85
2018-12-13T12:36:01.203Z,47.75
2018-12-13T12:37:06.085Z,86.87
2018-12-13T12:38:13.220Z,35.55
2018-12-13T12:39:20.357Z,58.58
2018-12-13T12:40:28.625Z,157.55
2018-12-13T12:41:33.731Z,429.40
2018-12-13T12:42:40.545Z,504.48
2018-12-13T12:43:46.884Z,123.78
2018-12-13T12:44:53.449Z,47.75
2018-12-13T12:45:59.304Z,22.45
2018-12-13T12:47:05.700Z,26.40
2018-12-13T12:48:14.512Z,21.02
2018-12-13T12:49:19.246Z,17.62
2018-12-13T12:50:24.833Z,15.20
2018-12-13T12:51:30.396Z,11.50
2018-12-13T12:52:35.578Z,23.73
2018-12-13T12:53:40.679Z,11.83
2018-12-13T12:54:46.694Z,16.20
2018-12-13T12:55:52.191Z,17.27
2018-12-13T12:56:57.472Z,12.95
2018-12-13T12:58:08.973Z,12.75
2018-12-13T12:59:15.035Z,14.87
2018-12-13T13:00:25.069Z,14.50
2018-12-13T13:01:30.641Z,15.72
2018-12-13T13:02:38.569Z,14.75
2018-12-13T13:03:44.292Z,16.02
2018-12-13T13:04:49.474Z,14.58
2018-12-13T13:05:54.550Z,12.18
2018-12-13T13:07:01.841Z,11.73
2018-12-13T13:08:07.349Z,12.43
2018-12-13T13:09:14.301Z,14.50
2018-12-13T13:10:20.683Z,14.35
2018-12-13T13:11:27.325Z,13.55
2018-12-13T13:12:34.239Z,11.63
2018-12-13T13:14:15.838Z,14.90
2018-12-13T13:15:22.223Z,12.75
2018-12-13T13:16:52.678Z,11.48
2018-12-13T13:18:02.439Z,16.62
2018-12-13T13:19:10.453Z,10.43
2018-12-13T13:20:15.346Z,11.28
2018-12-13T13:21:21.599Z,13.38
2018-12-13T13:22:27.974Z,11.50
2018-12-13T13:23:34.569Z,12.50
2018-12-13T13:24:39.609Z,11.50
2018-12-13T13:25:44.512Z,14.15
2018-12-13T13:26:51.437Z,13.50
2018-12-13T13:28:00.791Z,14.55
2018-12-13T13:31:02.985Z,17.57
2018-12-13T13:32:08.372Z,13.88
2018-12-13T13:33:13.773Z,12.73
2018-12-13T13:34:18.629Z,11.73
2018-12-13T13:35:23.917Z,12.10
2018-12-13T13:36:28.784Z,11.33
2018-12-13T13:37:33.592Z,12.43
2018-12-13T13:38:38.587Z,11.78
2018-12-13T13:39:43.370Z,10.32
2018-12-13T13:40:48.364Z,13.05
2018-12-13T13:41:53.151Z,9.13
2018-12-13T13:42:58.893Z,12.00
2018-12-13T13:44:04.657Z,11.60
2018-12-13T13:45:09.907Z,13.20
2018-12-13T13:46:14.941Z,11.45
2018-12-13T13:47:21.397Z,10.13
2018-12-13T13:48:27.454Z,11.30
2018-12-13T13:49:33.283Z,10.95
2018-12-13T13:50:40.117Z,11.50
2018-12-13T13:51:45.355Z,10.32
2018-12-13T13:52:51.733Z,8.55
2018-12-13T13:53:56.955Z,9.15
2018-12-13T13:55:03.434Z,11.05
2018-12-13T13:56:09.486Z,11.28
2018-12-13T13:57:14.816Z,10.55
2018-12-13T13:58:21.638Z,9.30
2018-12-13T13:59:27.930Z,11.85
2018-12-13T14:00:33.851Z,9.85
2018-12-13T14:01:39.206Z,11.78
2018-12-13T14:02:45.324Z,13.03
2018-12-13T14:03:51.337Z,11.22
2018-12-13T14:04:56.298Z,10.95
2018-12-13T14:06:03.770Z,15.13
2018-12-13T14:07:10.342Z,11.30
2018-12-13T14:08:15.300Z,13.25
2018-12-13T14:09:21.178Z,17.45
2018-12-13T14:10:26.009Z,9.80
2018-12-13T14:11:31.729Z,10.65
2018-12-13T14:12:37.463Z,9.00
2018-12-13T14:13:46.795Z,8.25
2018-12-13T14:14:53.543Z,7.67
2018-12-13T14:15:58.866Z,10.48
2018-12-13T14:17:05.593Z,9.45
2018-12-13T14:18:12.058Z,10.50
2018-12-13T14:19:18.433Z,9.95
2018-12-13T14:20:24.904Z,14.10
2018-12-13T14:21:33.922Z,9.50
2018-12-13T14:22:39.488Z,11.33
2018-12-13T14:23:44.324Z,8.70
2018-12-13T14:24:49.160Z,9.58
2018-12-13T14:25:54.990Z,10.95
2018-12-13T14:27:00.717Z,8.40
2018-12-13T14:28:07.524Z,8.83
2018-12-13T14:29:17.563Z,11.00
2018-12-13T14:30:23.584Z,9.68
2018-12-13T14:31:34.637Z,7.75
2018-12-13T14:32:39.720Z,12.37
2018-12-13T14:33:47.543Z,10.60
2018-12-13T14:34:57.465Z,12.15
2018-12-13T14:36:01.965Z,8.80
2018-12-13T14:37:07.352Z,8.40
2018-12-13T14:38:14.333Z,13.88